createdAt,value
2022-09-20T00:01:34.099Z,99.53
2022-09-20T00:03:40.437Z,99.67
2022-09-20T00:05:44.354Z,99.52
2022-09-20T00:07:46.298Z,99.56
2022-09-20T00:09:48.321Z,99.59
2022-09-20T00:11:51.602Z,98.96
2022-09-20T00:13:56.190Z,98.84
2022-09-20T00:15:58.344Z,99.07
2022-09-20T00:18:00.302Z,99.03
2022-09-20T00:20:02.554Z,98.78
2022-09-20T00:22:04.524Z,98.94
2022-09-20T00:24:06.789Z,98.75
2022-09-20T00:26:08.735Z,98.49
2022-09-20T00:28:11.123Z,98.75
2022-09-20T00:30:13.534Z,99.10
2022-09-20T00:32:15.536Z,98.75
2022-09-20T00:34:36.240Z,99.00
2022-09-20T00:36:38.249Z,98.60
2022-09-20T00:38:40.220Z,98.49
2022-09-20T00:40:43.495Z,98.59
2022-09-20T00:42:45.471Z,98.83
2022-09-20T00:44:57.529Z,99.06
2022-09-20T00:46:59.651Z,99.22
2022-09-20T00:49:20.481Z,99.37
2022-09-20T00:51:29.353Z,98.82
2022-09-20T00:53:40.191Z,98.86
2022-09-20T00:55:48.108Z,98.68
2022-09-20T00:57:50.087Z,98.69
2022-09-20T00:59:52.088Z,98.91
2022-09-20T01:02:03.186Z,98.39
2022-09-20T01:04:05.292Z,99.13
2022-09-20T01:06:09.998Z,98.80
2022-09-20T01:08:11.945Z,99.19
2022-09-20T01:10:13.922Z,99.21
2022-09-20T01:12:23.730Z,99.26
2022-09-20T01:14:26.072Z,99.40
2022-09-20T01:16:28.204Z,99.06
2022-09-20T01:18:30.228Z,99.14
2022-09-20T01:20:35.933Z,99.50
2022-09-20T01:22:55.570Z,99.42
2022-09-20T01:25:14.730Z,99.30
2022-09-20T01:27:38.459Z,98.76
2022-09-20T01:30:06.623Z,98.27
2022-09-20T01:32:12.972Z,98.04
2022-09-20T01:34:19.038Z,98.25
2022-09-20T01:36:44.400Z,98.74
2022-09-20T01:39:00.511Z,99.08
2022-09-20T01:41:34.407Z,99.05
2022-09-20T01:43:52.962Z,99.25
2022-09-20T01:45:55.096Z,99.85
2022-09-20T01:48:26.523Z,99.47
2022-09-20T01:50:46.795Z,99.84
2022-09-20T01:53:25.916Z,99.92
2022-09-20T01:56:08.115Z,100.00
2022-09-20T01:58:42.144Z,100.00
2022-09-20T02:01:10.764Z,100.00
2022-09-20T02:03:31.373Z,100.00
2022-09-20T02:05:57.402Z,100.00
2022-09-20T02:08:27.208Z,100.00
2022-09-20T02:10:41.983Z,100.00
2022-09-20T02:12:58.941Z,100.00
2022-09-20T02:15:36.525Z,100.00
2022-09-20T02:18:11.601Z,100.00
2022-09-20T02:20:43.528Z,100.00
2022-09-20T02:22:53.384Z,100.00
2022-09-20T02:25:26.255Z,100.00
2022-09-20T02:28:13.544Z,100.00
2022-09-20T02:30:34.878Z,100.00
2022-09-20T02:33:05.200Z,100.00
2022-09-20T02:35:15.410Z,100.00
2022-09-20T02:37:39.815Z,100.00
2022-09-20T02:39:59.761Z,100.00
2022-09-20T02:42:13.413Z,100.00
2022-09-20T02:44:44.114Z,100.00
2022-09-20T02:47:36.931Z,100.00
2022-09-20T02:50:20.898Z,100.00
2022-09-20T02:52:56.413Z,100.00
2022-09-20T02:55:18.887Z,100.00
2022-09-20T02:58:07.346Z,100.00
2022-09-20T03:00:25.334Z,100.00
2022-09-20T03:02:52.287Z,100.00
2022-09-20T03:05:10.223Z,100.00
2022-09-20T03:07:51.338Z,100.00
2022-09-20T03:10:36.732Z,100.00
2022-09-20T03:13:08.827Z,100.00
2022-09-20T03:15:27.275Z,100.00
2022-09-20T03:17:36.605Z,100.00
2022-09-20T03:20:00.694Z,100.00
2022-09-20T03:22:30.260Z,100.00
2022-09-20T03:25:11.943Z,100.00
2022-09-20T03:27:43.830Z,100.00
2022-09-20T03:30:24.692Z,100.00
2022-09-20T03:33:09.550Z,100.00
2022-09-20T03:35:40.276Z,100.00
2022-09-20T03:38:15.034Z,100.00
2022-09-20T03:41:08.843Z,100.00
2022-09-20T03:43:51.543Z,100.00
2022-09-20T03:46:17.227Z,100.00
2022-09-20T03:48:53.187Z,100.00
2022-09-20T03:51:06.951Z,100.00
2022-09-20T03:53:32.950Z,100.00
2022-09-20T03:55:51.399Z,100.00
2022-09-20T03:58:21.454Z,100.00
2022-09-20T04:00:54.336Z,100.00
2022-09-20T04:03:31.344Z,100.00
2022-09-20T04:05:43.452Z,100.00
2022-09-20T04:08:08.734Z,100.00
2022-09-20T04:10:28.758Z,100.00
2022-09-20T04:12:39.295Z,100.00
2022-09-20T04:14:58.098Z,100.00
2022-09-20T04:17:23.076Z,100.00
2022-09-20T04:19:44.729Z,100.00
2022-09-20T04:22:00.807Z,100.00
2022-09-20T04:24:43.163Z,100.00
2022-09-20T04:26:47.984Z,100.00
2022-09-20T04:29:34.121Z,100.00
2022-09-20T04:31:43.097Z,100.00
2022-09-20T04:33:46.117Z,100.00
2022-09-20T04:36:31.552Z,100.00
2022-09-20T04:38:35.728Z,100.00
2022-09-20T04:41:08.675Z,100.00
2022-09-20T04:43:53.724Z,100.00
2022-09-20T04:46:26.657Z,100.00
2022-09-20T04:48:56.666Z,100.00
2022-09-20T04:51:42.709Z,100.00
2022-09-20T04:54:47.737Z,100.00
2022-09-20T04:57:49.010Z,100.00
2022-09-20T05:00:24.520Z,100.00
2022-09-20T05:02:46.987Z,100.00
2022-09-20T05:05:26.948Z,100.00
2022-09-20T05:08:05.141Z,100.00
2022-09-20T05:10:38.089Z,100.00
2022-09-20T05:13:22.182Z,100.00
2022-09-20T05:15:36.383Z,100.00
2022-09-20T05:17:59.723Z,100.00
2022-09-20T05:20:56.865Z,100.00
2022-09-20T05:23:20.463Z,100.00
2022-09-20T05:25:57.366Z,100.00
2022-09-20T05:28:10.509Z,100.00
2022-09-20T05:31:30.448Z,100.00
2022-09-20T05:33:49.096Z,100.00
2022-09-20T05:36:21.509Z,100.00
2022-09-20T05:38:42.888Z,100.00
2022-09-20T05:41:19.493Z,100.00
2022-09-20T05:43:35.290Z,100.00
2022-09-20T05:45:49.915Z,100.00
2022-09-20T05:48:36.529Z,100.00
2022-09-20T05:50:55.735Z,100.00
2022-09-20T05:53:38.803Z,100.00
2022-09-20T05:56:26.105Z,100.00
2022-09-20T05:58:50.917Z,100.00
2022-09-20T06:01:10.542Z,100.00
2022-09-20T06:03:46.647Z,100.00
2022-09-20T06:06:10.704Z,100.00
2022-09-20T06:08:46.056Z,100.00
2022-09-20T06:11:34.755Z,100.00
2022-09-20T06:14:15.241Z,100.00
2022-09-20T06:16:43.266Z,100.00
2022-09-20T06:19:19.846Z,100.00
2022-09-20T06:21:41.999Z,100.00
2022-09-20T06:23:44.194Z,100.00
2022-09-20T06:26:09.325Z,100.00
2022-09-20T06:28:22.316Z,100.00
2022-09-20T06:30:34.073Z,100.00
2022-09-20T06:32:36.278Z,100.00
2022-09-20T06:34:38.219Z,100.00
2022-09-20T06:37:02.809Z,100.00
2022-09-20T06:39:59.544Z,100.00
2022-09-20T06:42:01.701Z,100.00
2022-09-20T06:44:04.050Z,100.00
2022-09-20T06:46:06.307Z,100.00
2022-09-20T06:48:11.709Z,100.00
2022-09-20T06:50:17.331Z,100.00
2022-09-20T06:52:21.553Z,100.00
2022-09-20T06:54:23.585Z,100.00
2022-09-20T06:56:27.876Z,99.60
2022-09-20T06:58:29.828Z,99.05
2022-09-20T07:00:31.790Z,99.09
2022-09-20T07:02:33.891Z,98.72
2022-09-20T07:04:35.996Z,98.64
2022-09-20T07:06:38.016Z,98.16
2022-09-20T07:08:40.014Z,97.81
2022-09-20T07:10:43.438Z,97.27
2022-09-20T07:12:46.392Z,96.42
2022-09-20T07:14:50.600Z,96.38
2022-09-20T07:16:55.949Z,95.35
2022-09-20T07:18:57.986Z,95.15
2022-09-20T07:21:03.255Z,94.06
2022-09-20T07:23:05.273Z,93.56
2022-09-20T07:25:07.970Z,91.81
2022-09-20T07:27:11.536Z,90.78
2022-09-20T07:29:13.681Z,91.54
2022-09-20T07:31:19.490Z,90.67
2022-09-20T07:33:25.141Z,91.68
2022-09-20T07:35:27.133Z,91.00
2022-09-20T07:37:31.848Z,89.30
2022-09-20T07:39:35.982Z,87.07
2022-09-20T07:41:37.994Z,88.49
2022-09-20T07:43:39.959Z,86.91
2022-09-20T07:45:41.960Z,86.17
2022-09-20T07:47:46.553Z,85.61
2022-09-20T07:49:48.522Z,82.21
2022-09-20T07:51:50.743Z,83.88
2022-09-20T07:53:55.191Z,83.49
2022-09-20T07:56:05.955Z,81.58
2022-09-20T07:58:07.904Z,82.30
2022-09-20T08:00:11.460Z,83.02
2022-09-20T08:02:16.816Z,81.25
2022-09-20T08:04:18.890Z,82.80
2022-09-20T08:06:21.892Z,82.36
2022-09-20T08:08:24.014Z,82.03
2022-09-20T08:10:26.893Z,80.67
2022-09-20T08:14:51.428Z,81.16
2022-09-20T08:16:53.460Z,79.07
2022-09-20T08:18:58.940Z,79.46
2022-09-20T08:21:08.430Z,75.87
2022-09-20T08:23:23.498Z,77.86
2022-09-20T08:25:26.084Z,76.31
2022-09-20T08:27:28.056Z,75.14
2022-09-20T08:29:30.086Z,71.95
2022-09-20T08:31:34.456Z,72.85
2022-09-20T08:33:38.086Z,69.68
2022-09-20T08:35:40.065Z,72.86
2022-09-20T08:37:43.709Z,72.90
2022-09-20T08:40:01.172Z,72.42
2022-09-20T08:42:24.214Z,67.60
2022-09-20T08:44:35.087Z,66.37
2022-09-20T08:46:43.390Z,65.01
2022-09-20T08:48:45.901Z,66.70
2022-09-20T08:50:47.857Z,68.38
2022-09-20T08:52:53.887Z,65.49
2022-09-20T08:54:58.124Z,63.52
2022-09-20T08:57:07.199Z,63.15
2022-09-20T08:59:09.545Z,63.16
2022-09-20T09:01:23.443Z,58.13
2022-09-20T09:03:25.428Z,64.99
2022-09-20T09:05:48.461Z,59.31
2022-09-20T09:07:50.449Z,60.11
2022-09-20T09:09:53.785Z,58.68
2022-09-20T09:11:56.962Z,57.03
2022-09-20T09:14:04.594Z,54.95
2022-09-20T09:16:11.767Z,53.99
2022-09-20T09:18:13.988Z,54.09
2022-09-20T09:20:22.610Z,55.28
2022-09-20T09:22:39.833Z,55.92
2022-09-20T09:24:41.858Z,60.19
2022-09-20T09:26:43.830Z,53.70
2022-09-20T09:28:45.807Z,55.80
2022-09-20T09:30:47.909Z,55.97
2022-09-20T09:32:50.038Z,58.74
2022-09-20T09:34:52.002Z,59.10
2022-09-20T09:36:57.028Z,59.21
2022-09-20T09:39:26.446Z,55.07
2022-09-20T09:41:34.409Z,53.93
2022-09-20T09:43:37.485Z,55.79
2022-09-20T09:45:39.635Z,54.40
2022-09-20T09:47:41.694Z,52.74
2022-09-20T09:50:00.281Z,48.84
2022-09-20T09:52:14.529Z,47.67
2022-09-20T09:54:17.818Z,53.20
2022-09-20T09:56:33.452Z,47.61
2022-09-20T09:59:07.985Z,47.29
2022-09-20T10:01:30.040Z,47.46
2022-09-20T10:03:47.162Z,47.27
2022-09-20T10:06:12.750Z,47.29
2022-09-20T10:08:38.937Z,46.04
2022-09-20T10:11:12.540Z,45.76
2022-09-20T10:13:28.204Z,44.22
2022-09-20T10:15:35.858Z,43.16
2022-09-20T10:18:17.306Z,41.18
2022-09-20T10:21:04.792Z,40.72
2022-09-20T10:23:45.026Z,39.49
2022-09-20T10:26:04.884Z,38.33
2022-09-20T10:28:51.928Z,37.46
2022-09-20T10:31:07.552Z,38.75
2022-09-20T10:33:53.561Z,35.94
2022-09-20T10:36:12.745Z,38.33
2022-09-20T10:38:38.529Z,35.08
2022-09-20T10:41:09.945Z,38.01
2022-09-20T10:43:17.317Z,36.57
2022-09-20T10:45:59.116Z,37.11
2022-09-20T10:48:12.377Z,37.33
2022-09-20T10:50:35.652Z,37.60
2022-09-20T10:53:12.008Z,38.70
2022-09-20T10:56:08.438Z,38.79
2022-09-20T10:58:33.443Z,37.73
2022-09-20T11:01:00.858Z,36.83
2022-09-20T11:03:35.824Z,36.43
2022-09-20T11:05:57.929Z,35.23
2022-09-20T11:08:13.085Z,33.76
2022-09-20T11:10:36.288Z,32.71
2022-09-20T11:12:46.166Z,32.18
2022-09-20T11:15:00.016Z,31.40
2022-09-20T11:18:00.714Z,29.84
2022-09-20T11:20:27.248Z,30.53
2022-09-20T11:22:39.956Z,30.07
2022-09-20T11:25:21.649Z,28.99
2022-09-20T11:27:58.992Z,29.16
2022-09-20T11:30:40.913Z,28.38
2022-09-20T11:33:05.160Z,29.28
2022-09-20T11:35:15.928Z,31.17
2022-09-20T11:37:18.235Z,30.08
2022-09-20T11:39:41.767Z,27.56
2022-09-20T11:41:43.761Z,32.44
2022-09-20T11:43:46.055Z,30.33
2022-09-20T11:45:50.201Z,29.60
2022-09-20T11:48:00.071Z,27.39
2022-09-20T11:50:40.127Z,26.91
2022-09-20T11:53:13.806Z,26.89
2022-09-20T11:55:51.255Z,26.18
2022-09-20T11:58:13.599Z,27.30
2022-09-20T12:00:17.843Z,29.61
2022-09-20T12:02:40.781Z,27.76
2022-09-20T12:04:44.732Z,29.02
2022-09-20T12:06:46.699Z,30.48
2022-09-20T12:08:51.712Z,30.28
2022-09-20T12:11:12.429Z,31.24
2022-09-20T12:13:24.461Z,31.72
2022-09-20T12:15:31.028Z,32.49
2022-09-20T12:17:48.134Z,32.30
2022-09-20T12:19:50.102Z,32.92
2022-09-20T12:22:00.562Z,33.56
2022-09-20T12:24:17.290Z,33.97
2022-09-20T12:26:22.141Z,34.55
2022-09-20T12:28:41.767Z,34.43
2022-09-20T12:30:43.809Z,34.72
2022-09-20T12:32:52.217Z,33.93
2022-09-20T12:34:54.184Z,34.13
2022-09-20T12:36:55.991Z,33.07
2022-09-20T12:39:17.527Z,32.97
2022-09-20T12:41:28.741Z,33.22
2022-09-20T12:43:32.034Z,33.52
2022-09-20T12:45:34.032Z,33.67
2022-09-20T12:47:37.216Z,34.36
2022-09-20T12:50:06.803Z,34.58
2022-09-20T12:52:50.459Z,35.08
2022-09-20T12:54:53.579Z,34.08
2022-09-20T12:56:55.528Z,34.14
2022-09-20T12:58:57.512Z,33.38
2022-09-20T13:01:06.859Z,32.80
2022-09-20T13:03:27.232Z,32.64
2022-09-20T13:05:40.721Z,32.59
2022-09-20T13:07:44.240Z,31.29
2022-09-20T13:09:46.631Z,30.91
2022-09-20T13:11:57.801Z,30.82
2022-09-20T13:14:06.242Z,30.27
2022-09-20T13:16:12.734Z,30.20
2022-09-20T13:18:15.512Z,31.38
2022-09-20T13:20:23.802Z,30.45
2022-09-20T13:22:31.372Z,32.51
2022-09-20T13:24:45.338Z,32.74
2022-09-20T13:26:48.197Z,33.48
2022-09-20T13:28:51.724Z,33.56
2022-09-20T13:31:32.666Z,34.58
2022-09-20T13:33:34.980Z,35.29
2022-09-20T13:35:36.841Z,34.43
2022-09-20T13:37:45.071Z,34.28
2022-09-20T13:39:47.235Z,34.03
2022-09-20T13:41:49.386Z,32.67
2022-09-20T13:43:54.189Z,33.66
2022-09-20T13:45:59.650Z,31.19
2022-09-20T13:48:01.929Z,31.87
2022-09-20T13:50:27.502Z,30.36
2022-09-20T13:52:31.220Z,29.90
2022-09-20T13:54:33.804Z,29.62
2022-09-20T13:56:35.759Z,28.86
2022-09-20T13:58:37.741Z,28.49
2022-09-20T14:00:44.979Z,28.91
2022-09-20T14:02:49.076Z,28.30
2022-09-20T14:04:53.790Z,28.42
2022-09-20T14:06:57.666Z,28.02
2022-09-20T14:09:00.232Z,29.31
2022-09-20T14:11:06.658Z,29.90
2022-09-20T14:13:09.608Z,31.60
2022-09-20T14:15:15.216Z,31.24
2022-09-20T14:17:19.381Z,32.52
2022-09-20T14:19:25.825Z,32.63
2022-09-20T14:21:29.489Z,32.56
2022-09-20T14:23:31.957Z,33.16
2022-09-20T14:25:34.586Z,33.18
2022-09-20T14:27:36.648Z,34.04
2022-09-20T14:29:47.020Z,34.86
2022-09-20T14:31:49.083Z,35.38
2022-09-20T14:33:56.071Z,33.95
2022-09-20T14:35:58.036Z,33.04
2022-09-20T14:38:08.503Z,33.45
2022-09-20T14:40:28.562Z,32.73
2022-09-20T14:42:41.451Z,32.48
2022-09-20T14:44:43.396Z,32.25
2022-09-20T14:46:45.396Z,31.76
2022-09-20T14:48:47.379Z,31.71
2022-09-20T14:51:16.321Z,31.41
2022-09-20T14:53:24.983Z,31.17
2022-09-20T14:55:28.633Z,31.60
2022-09-20T14:57:32.310Z,31.58
2022-09-20T14:59:41.810Z,31.63
2022-09-20T15:01:57.902Z,31.43
2022-09-20T15:04:00.366Z,32.64
2022-09-20T15:06:02.343Z,32.75
2022-09-20T15:08:05.485Z,32.78
2022-09-20T15:10:13.208Z,32.70
2022-09-20T15:12:17.768Z,34.04
2022-09-20T15:14:19.733Z,34.16
2022-09-20T15:16:22.009Z,34.21
2022-09-20T15:18:26.769Z,34.46
2022-09-20T15:20:28.829Z,34.19
2022-09-20T15:22:32.193Z,34.11
2022-09-20T15:24:34.173Z,34.61
2022-09-20T15:26:36.125Z,33.99
2022-09-20T15:28:38.129Z,33.96
2022-09-20T15:30:40.601Z,33.88
2022-09-20T15:32:46.434Z,33.79
2022-09-20T15:34:48.382Z,33.96
2022-09-20T15:36:50.830Z,33.90
2022-09-20T15:38:54.226Z,33.58
2022-09-20T15:40:56.185Z,33.68
2022-09-20T15:42:59.513Z,33.61
2022-09-20T15:45:01.475Z,34.20
2022-09-20T15:47:04.547Z,33.80
2022-09-20T15:49:06.744Z,34.27
2022-09-20T15:51:11.320Z,34.71
2022-09-20T15:53:13.360Z,35.09
2022-09-20T15:55:15.398Z,35.85
2022-09-20T15:57:17.364Z,36.59
2022-09-20T15:59:23.219Z,36.31
2022-09-20T16:01:35.650Z,36.94
2022-09-20T16:03:37.749Z,36.33
2022-09-20T16:05:39.730Z,37.05
2022-09-20T16:07:42.432Z,36.80
2022-09-20T16:11:49.631Z,37.37
2022-09-20T16:13:55.911Z,37.18
2022-09-20T16:16:02.094Z,37.51
2022-09-20T16:18:22.714Z,38.39
2022-09-20T16:20:25.175Z,38.39
2022-09-20T16:22:28.069Z,38.81
2022-09-20T16:24:33.187Z,39.54
2022-09-20T16:26:35.846Z,40.07
2022-09-20T16:28:37.755Z,40.83
2022-09-20T16:30:39.996Z,40.79
2022-09-20T16:32:43.056Z,41.17
2022-09-20T16:34:45.748Z,41.06
2022-09-20T16:36:49.240Z,42.11
2022-09-20T16:38:52.529Z,41.93
2022-09-20T16:40:56.048Z,43.06
2022-09-20T16:42:59.056Z,43.26
2022-09-20T16:45:01.483Z,42.50
2022-09-20T16:47:10.818Z,44.94
2022-09-20T16:49:13.861Z,44.75
2022-09-20T16:51:15.945Z,45.53
2022-09-20T16:53:18.272Z,46.39
2022-09-20T16:55:21.199Z,46.28
2022-09-20T16:57:23.262Z,47.47
2022-09-20T16:59:25.229Z,48.36
2022-09-20T17:01:27.699Z,47.89
2022-09-20T17:03:29.734Z,49.85
2022-09-20T17:05:31.730Z,49.95
2022-09-20T17:07:33.737Z,50.41
2022-09-20T17:09:35.723Z,52.10
2022-09-20T17:11:45.997Z,52.27
2022-09-20T17:13:48.062Z,51.35
2022-09-20T17:15:50.577Z,51.71
2022-09-20T17:17:53.473Z,53.77
2022-09-20T17:19:56.109Z,53.43
2022-09-20T17:21:58.713Z,51.94
2022-09-20T17:24:01.216Z,54.83
2022-09-20T17:26:18.813Z,54.93
2022-09-20T17:28:20.863Z,53.68
2022-09-20T17:30:22.822Z,55.02
2022-09-20T17:32:25.196Z,55.21
2022-09-20T17:34:28.159Z,55.19
2022-09-20T17:36:32.762Z,55.76
2022-09-20T17:38:34.921Z,57.00
2022-09-20T17:40:36.986Z,56.23
2022-09-20T17:42:39.334Z,56.30
2022-09-20T17:44:41.375Z,56.83
2022-09-20T17:46:45.361Z,57.95
2022-09-20T17:48:50.578Z,56.70
2022-09-20T17:50:56.315Z,58.22
2022-09-20T17:52:58.288Z,58.55
2022-09-20T17:55:00.239Z,57.48
2022-09-20T17:57:02.227Z,59.40
2022-09-20T17:59:05.489Z,60.69
2022-09-20T18:01:14.193Z,59.72
2022-09-20T18:03:17.559Z,59.88
2022-09-20T18:05:19.572Z,60.73
2022-09-20T18:07:21.541Z,61.12
2022-09-20T18:09:25.045Z,61.89
2022-09-20T18:11:32.274Z,62.68
2022-09-20T18:13:34.666Z,61.70
2022-09-20T18:15:36.637Z,62.76
2022-09-20T18:17:38.644Z,63.50
2022-09-20T18:19:41.311Z,63.62
2022-09-20T18:21:43.642Z,64.16
2022-09-20T18:23:46.202Z,63.95
2022-09-20T18:26:06.849Z,63.10
2022-09-20T18:28:08.983Z,64.40
2022-09-20T18:30:11.467Z,63.89
2022-09-20T18:32:13.463Z,64.66
2022-09-20T18:34:20.382Z,66.39
2022-09-20T18:36:24.536Z,66.42
2022-09-20T18:38:26.669Z,66.45
2022-09-20T18:40:29.816Z,65.79
2022-09-20T18:42:31.809Z,66.52
2022-09-20T18:44:34.072Z,66.87
2022-09-20T18:46:38.142Z,67.03
2022-09-20T18:48:40.452Z,67.74
2022-09-20T18:50:42.479Z,69.02
2022-09-20T18:52:44.599Z,69.00
2022-09-20T18:54:47.206Z,67.47
2022-09-20T18:56:50.506Z,69.38
2022-09-20T18:59:07.153Z,70.92
2022-09-20T19:01:36.666Z,71.61
2022-09-20T19:04:11.340Z,72.26
2022-09-20T19:06:13.414Z,70.95
2022-09-20T19:08:41.204Z,72.38
2022-09-20T19:10:54.661Z,73.38
2022-09-20T19:13:38.313Z,74.46
2022-09-20T19:16:11.563Z,74.50
2022-09-20T19:18:38.850Z,75.34
2022-09-20T19:21:04.853Z,74.95
2022-09-20T19:23:37.818Z,76.43
2022-09-20T19:25:45.048Z,75.93
2022-09-20T19:27:47.436Z,74.84
2022-09-20T19:29:49.777Z,75.91
2022-09-20T19:31:55.561Z,74.76
2022-09-20T19:34:00.111Z,76.96
2022-09-20T19:36:03.296Z,77.33
2022-09-20T19:38:24.827Z,78.44
2022-09-20T19:40:51.820Z,78.59
2022-09-20T19:43:05.515Z,78.33
2022-09-20T19:46:01.022Z,79.30
2022-09-20T19:48:50.382Z,79.28
2022-09-20T19:50:53.152Z,75.15
2022-09-20T19:52:58.337Z,80.02
2022-09-20T19:55:00.910Z,76.91
2022-09-20T19:57:02.905Z,79.28
2022-09-20T19:59:05.679Z,77.40
2022-09-20T20:01:08.330Z,80.37
2022-09-20T20:03:12.585Z,78.86
2022-09-20T20:05:17.414Z,78.75
2022-09-20T20:07:27.796Z,77.83
2022-09-20T20:10:01.228Z,80.94
2022-09-20T20:12:14.568Z,80.04
2022-09-20T20:14:24.948Z,79.65
2022-09-20T20:16:39.891Z,80.65
2022-09-20T20:19:09.060Z,81.73
2022-09-20T20:21:31.603Z,81.11
2022-09-20T20:23:51.615Z,81.15
2022-09-20T20:26:23.455Z,80.64
2022-09-20T20:28:25.824Z,78.79
2022-09-20T20:30:27.755Z,78.43
2022-09-20T20:32:29.695Z,77.68
2022-09-20T20:34:31.649Z,77.43
2022-09-20T20:36:33.621Z,80.12
2022-09-20T20:38:37.665Z,80.75
2022-09-20T20:40:40.839Z,82.02
2022-09-20T20:42:43.880Z,78.17
2022-09-20T20:44:46.140Z,80.62
2022-09-20T20:46:48.640Z,79.92
2022-09-20T20:48:50.615Z,80.04
2022-09-20T20:51:12.069Z,81.12
2022-09-20T20:53:14.500Z,82.25
2022-09-20T20:55:16.529Z,81.79
2022-09-20T20:57:19.053Z,81.66
2022-09-20T20:59:21.016Z,78.97
2022-09-20T21:01:31.261Z,81.14
2022-09-20T21:03:34.094Z,80.61
2022-09-20T21:05:36.302Z,83.50
2022-09-20T21:07:38.281Z,82.08
2022-09-20T21:09:40.250Z,82.18
2022-09-20T21:11:46.723Z,80.71
2022-09-20T21:13:48.902Z,82.03
2022-09-20T21:15:50.878Z,83.05
2022-09-20T21:17:53.284Z,79.78
2022-09-20T21:19:55.199Z,80.32
2022-09-20T21:21:57.143Z,81.44
2022-09-20T21:24:02.539Z,82.92
2022-09-20T21:26:09.289Z,82.67
2022-09-20T21:28:11.251Z,80.02
2022-09-20T21:30:13.793Z,82.20
2022-09-20T21:32:15.786Z,80.75
2022-09-20T21:34:17.770Z,78.91
2022-09-20T21:36:23.641Z,80.60
2022-09-20T21:38:25.619Z,80.59
2022-09-20T21:40:27.625Z,82.34
2022-09-20T21:42:29.678Z,83.06
2022-09-20T21:44:31.837Z,82.44
2022-09-20T21:46:36.043Z,82.89
2022-09-20T21:48:38.673Z,81.79
2022-09-20T21:50:40.619Z,82.96
2022-09-20T21:52:46.586Z,82.31
2022-09-20T21:54:49.001Z,82.20
2022-09-20T21:56:52.964Z,81.41
2022-09-20T21:58:55.219Z,83.91
2022-09-20T22:01:15.155Z,84.56
2022-09-20T22:03:17.168Z,80.73
2022-09-20T22:05:19.157Z,83.86
2022-09-20T22:07:21.194Z,81.49
2022-09-20T22:09:25.028Z,83.38
2022-09-20T22:11:32.437Z,85.51
2022-09-20T22:13:34.969Z,81.73
2022-09-20T22:15:36.966Z,82.48
2022-09-20T22:17:38.956Z,84.67
2022-09-20T22:19:40.972Z,84.33
2022-09-20T22:21:48.166Z,84.54
2022-09-20T22:23:57.346Z,84.66
2022-09-20T22:26:04.958Z,84.46
2022-09-20T22:28:07.011Z,86.17
2022-09-20T22:30:10.143Z,84.07
2022-09-20T22:32:12.092Z,83.58
2022-09-20T22:34:24.893Z,82.24
2022-09-20T22:36:38.312Z,85.23
2022-09-20T22:38:43.829Z,82.89
2022-09-20T22:40:56.213Z,85.82
2022-09-20T22:42:58.162Z,83.14
2022-09-20T22:45:00.413Z,82.92
2022-09-20T22:47:02.405Z,84.04
2022-09-20T22:49:07.786Z,86.21
2022-09-20T22:51:17.831Z,86.16
2022-09-20T22:53:19.780Z,83.89
2022-09-20T22:55:24.406Z,83.75
2022-09-20T22:57:26.988Z,84.61
2022-09-20T22:59:28.948Z,84.43
2022-09-20T23:01:37.352Z,85.85
2022-09-20T23:03:40.751Z,84.11
2022-09-20T23:05:44.593Z,84.89
2022-09-20T23:07:48.672Z,84.97
2022-09-20T23:09:50.648Z,83.29
2022-09-20T23:11:52.590Z,84.72
2022-09-20T23:13:56.482Z,84.96
2022-09-20T23:15:58.639Z,85.11
2022-09-20T23:18:00.621Z,84.83
2022-09-20T23:20:03.768Z,84.67
2022-09-20T23:22:05.745Z,85.10
2022-09-20T23:24:09.717Z,85.50
2022-09-20T23:26:18.628Z,86.59
2022-09-20T23:28:21.873Z,85.46
2022-09-20T23:30:23.824Z,84.56
2022-09-20T23:32:25.935Z,85.20
2022-09-20T23:34:27.915Z,86.34
2022-09-20T23:36:31.403Z,85.76
2022-09-20T23:38:33.345Z,85.28
2022-09-20T23:40:35.410Z,85.24
2022-09-20T23:42:37.539Z,85.08
2022-09-20T23:44:39.583Z,84.90
2022-09-20T23:46:41.568Z,86.09
2022-09-20T23:48:43.928Z,85.97
2022-09-20T23:50:45.870Z,85.07
2022-09-20T23:52:47.851Z,86.60
2022-09-20T23:54:49.831Z,85.67
2022-09-20T23:56:51.765Z,84.31
2022-09-20T23:58:54.168Z,84.94
